バンコク/スワンナプーム の空港の天気 - METARとTAF

スワンナプーム国際空港 ( VTBS / BKK ) - タイ サムットプラーカーン県 (バンコク近郊)
飛行場実況気象(Metar)
観測時間08/05 03:00 ICT (08/04 20:00 UTC)
風向・風速西南西 4m/s
視程10km以上
天気現象弱い雨
少しの雲 雲底高度 610m
全天の4割程度の雲 雲底高度 1220m
気温27℃
湿度89%
気圧1004hPa
METARVTBS 042000Z 25007KT 9999 -RA FEW020CB SCT040 27/25 Q1004 NOSIG
過去の天気等 Google飛行場航空写真 Wunderground天気予報

過去48時間のMETAR

飛行場予報(TAF)
発表時間: 8/05 00:00 ICT (8/04 17:00 UTC)
予報対象時間: 5日1時 ICT ~ 6日7時 ICT
風向・風速南 4m/s
視程9000m
全天の4割程度の雲 雲底高度 610m
全天の4割程度の雲 雲底高度 2440m
5日15時 ICT ~ 5日21時 ICT に一時的に
風向・風速南西 5m/s 瞬間風速 13m/s
視程4000m
天気現象雷雨
少しの積乱雲 雲底高度 550m
全天の4割程度の雲 雲底高度 910m
全天の8割程度の雲 雲底高度 3050m
TAF VTBS 041700Z 0418/0524 19008KT 9000 SCT020 SCT080
TEMPO 0508/0514 23010G25KT 4000 TSRA FEW018CB SCT030 BKN100